Capitol Logistics 463


KRIV
March Air Reserve Base
Riverside, California, US
KTPA
Tampa International Airport
Tampa, Florida, US

Activity Log

Date Flight Route Aircraft Duration
10/16/2019 CPX463 TRM J169 TFD J50 SSO J4 EWM SJT CLL DAS LEV Y280 CHRGE SIMMR BLOND5 B738 4h 46m
09/01/2019 CPX463 TRM J169 TFD J50 SSO J4 EWM SJT CLL DAS LEV Y280 CHRGE SIMMR BLOND5 B738 4h 37m

Route Details

Aircraft Information
Primary: Boeing 737-800BCF
Backup: Not Available
Route Data
Distance: 1817nm
Sched. Duration: 4h 04m
Avg. Duration: 4h 42m (+38m)
Times Flown: 2
Recm'd Route: TRM J169 TFD J50 SSO J4 EWM SJT CLL DAS LEV Y280 CHRGE SIMMR BLOND5
Planned Altitude: 33,000ft
Origin Wx: KRIV 282058Z 20004KT 10SM CLR 27/M10 A3010 RMK AO2A SLP183 T02701101 57023
Dest. Wx: KTPA 282053Z 31011KT 10SM FEW050 FEW320 16/04 A3023 RMK AO2 SLP236 T01610039 56017
Notes:

Financial History
Total Freight: 81,312lbs
Average Load: 40,656lbs/flt
Fuel Used: 50,120lbs
Avg. Fuel Used: 25,060lbs/flt
Fuel Expense: $34,583
Avg. Fuel Expense: $17,291
Avg. Fuel Cost: $0.69/lbs
Total Gross Income: $106,519
Pilot Pay: $458
Total Expenses: $11,608
Total Revenue: $58,077
Average Revenue: $53,259.36